YPPHHAAB

Guest
Details From YPPH - Perth
To HAAB - Bole Intl
Flight Number -
Tags Generated
Created
Modified
Stats Distance 5,049 nm / 9,350 km
Max Altitude 0 ft / 0 m
Waypoints 4
Social Downloads 0
Likes 0
Share VATSIM

Download

Looking for another format? Having issues loading an existing format? Contact us
Advertisement - Login to hide

Notes

Generated

Route

YPPH BELEN ADS HAAB

ID Type Via Altitude Latitude Longitude Leg Dist Tot Dist Heading (true) Name
O YPPH APT - 0 ft / 0 m -31.95862˚ 115.95972˚ - 0 nm - -
BELEN FIX - 0 ft / 0 m 4.73664˚ 45.18158˚ 4590 nm 4590 nm 285° / 304° -
ADS VOR - 0 ft / 0 m 8.97504˚ 38.79940˚ 457 nm 5047 nm 304° / 303° ADDIS ABABA VOR-DME
O HAAB APT - 0 ft / 0 m 8.97398˚ 38.78241˚ 1 nm 5048 nm 266° / 266° -

Altitude Profile

Advertisement - Login to hide

Weather


0- 5 10 15 20 25 30 35+ Temperature / ° C

Clouds and Precipitation
Forecast for 2017-12-12 00:00 UTC. Updated 2 hours ago

Ground ~20,000 ft ~40,000 ft Winds

YPPH

Details ICAO YPPH (PER)
Name Perth
Region Australia
Timezone Australia/Perth (UTC+8.0)
Stats Elevation 70 ft / 21 m (AMSL)
Location -31.939673° 115.966614°
Runways 2
Magnetic Variation 1.670° W

METAR

YPPH 120030Z 20006KT 9000 FEW015 25/18 Q1010 NOSIG

Decode

TAF

TAF YPPH 112302Z 1200/1306 21012KT CAVOK FM120500 22020KT CAVOK FM121400 20012KT CAVOK FM122000 16010KT CAVOK FM130500 22016KT CAVOK

Decode

Departure Runways

ID Width Length Bearing (true) Bearing (mag) Surface Threshold Offset Overrun Length
03 151 ft / 46 m 11,390 ft / 3,472 m 13.89° 15.56° Asphalt 0 ft / 0 m 0 ft / 0 m
06 151 ft / 46 m 7,096 ft / 2,163 m 58.78° 60.45° Asphalt 0 ft / 0 m 0 ft / 0 m
21 151 ft / 46 m 11,390 ft / 3,472 m 193.88° 195.55° Asphalt 0 ft / 0 m 0 ft / 0 m
24 151 ft / 46 m 7,096 ft / 2,163 m 238.77° 240.44° Asphalt 0 ft / 0 m 0 ft / 0 m

HAAB

Details ICAO HAAB (ADD)
Name BOLE INTL
Region Ethiopia
Timezone Africa/Addis_Ababa (UTC+3.0)
Stats Elevation 7,656 ft / 2,334 m (AMSL)
Location 8.977892° 38.799321°
Runways 2
Magnetic Variation 2.274° E

METAR

HAAB 120100Z 27004KT CAVOK 05/M03 Q1027

Decode

TAF

Not found

Destination Runways

ID Width Length Bearing (true) Bearing (mag) Surface Threshold Offset Overrun Length
07L 148 ft / 45 m 12,136 ft / 3,699 m 73.56° 71.29° Asphalt 825 ft / 251 m 195 ft / 59 m
07R 148 ft / 45 m 12,460 ft / 3,798 m 73.53° 71.26° Asphalt 1,185 ft / 361 m 295 ft / 90 m
25L 148 ft / 45 m 12,460 ft / 3,798 m 253.53° 251.26° Asphalt 1,170 ft / 357 m 295 ft / 90 m
25R 148 ft / 45 m 12,136 ft / 3,699 m 253.56° 251.29° Asphalt 1,235 ft / 376 m 180 ft / 55 m

Approach Navaids

Runway Type Ident Frequency Range Bearing (true) Bearing (mag) Slope Elevation
25L Localiser IAA 111.50 MHz 18 nm / 33 km 253.62° 251.35° - 7,624 ft / 2,324 m (AMSL)
25L Glidescope IAA 111.50 MHz 10 nm / 19 km 253.53° 251.26° 2.93° 7,623 ft / 2,323 m (AMSL)